sensor_id;sensor_type;location;lat;lon;timestamp;P1;durP1;ratioP1;P2;durP2;ratioP2
73599;SDS011;61877;48.246;9.220;2022-08-02T00:00:05;8.17;;;3.60;;
73599;SDS011;61877;48.246;9.220;2022-08-02T00:02:31;9.10;;;3.72;;
73599;SDS011;61877;48.246;9.220;2022-08-02T00:04:57;8.60;;;3.20;;
73599;SDS011;61877;48.246;9.220;2022-08-02T00:07:22;7.88;;;3.45;;
73599;SDS011;61877;48.246;9.220;2022-08-02T00:09:49;7.07;;;3.33;;
73599;SDS011;61877;48.246;9.220;2022-08-02T00:12:15;8.77;;;3.33;;
73599;SDS011;61877;48.246;9.220;2022-08-02T00:14:40;6.93;;;3.03;;
73599;SDS011;61877;48.246;9.220;2022-08-02T00:17:06;8.30;;;3.40;;
73599;SDS011;61877;48.246;9.220;2022-08-02T00:19:31;7.60;;;3.28;;
73599;SDS011;61877;48.246;9.220;2022-08-02T00:21:57;7.10;;;3.10;;
73599;SDS011;61877;48.246;9.220;2022-08-02T00:24:22;9.00;;;3.60;;
73599;SDS011;61877;48.246;9.220;2022-08-02T00:26:49;7.63;;;3.20;;
73599;SDS011;61877;48.246;9.220;2022-08-02T00:29:14;6.90;;;2.90;;
73599;SDS011;61877;48.246;9.220;2022-08-02T00:31:40;9.10;;;3.55;;
73599;SDS011;61877;48.246;9.220;2022-08-02T00:34:05;7.10;;;3.10;;
73599;SDS011;61877;48.246;9.220;2022-08-02T00:36:31;7.30;;;3.60;;
73599;SDS011;61877;48.246;9.220;2022-08-02T00:38:56;7.90;;;3.10;;
73599;SDS011;61877;48.246;9.220;2022-08-02T00:41:22;8.25;;;3.40;;
73599;SDS011;61877;48.246;9.220;2022-08-02T00:43:49;7.65;;;3.35;;
73599;SDS011;61877;48.246;9.220;2022-08-02T00:46:16;7.30;;;2.93;;
73599;SDS011;61877;48.246;9.220;2022-08-02T00:48:42;7.82;;;3.13;;
73599;SDS011;61877;48.246;9.220;2022-08-02T00:51:08;9.82;;;3.08;;
73599;SDS011;61877;48.246;9.220;2022-08-02T00:53:33;7.80;;;2.87;;
73599;SDS011;61877;48.246;9.220;2022-08-02T00:55:59;8.47;;;3.10;;
73599;SDS011;61877;48.246;9.220;2022-08-02T00:58:25;7.80;;;3.05;;
73599;SDS011;61877;48.246;9.220;2022-08-02T01:00:52;6.90;;;2.97;;
73599;SDS011;61877;48.246;9.220;2022-08-02T01:03:17;7.88;;;3.15;;
73599;SDS011;61877;48.246;9.220;2022-08-02T01:05:43;8.50;;;3.47;;
73599;SDS011;61877;48.246;9.220;2022-08-02T01:08:08;9.90;;;3.10;;
73599;SDS011;61877;48.246;9.220;2022-08-02T01:10:34;8.27;;;3.30;;
73599;SDS011;61877;48.246;9.220;2022-08-02T01:13:00;7.40;;;3.60;;
73599;SDS011;61877;48.246;9.220;2022-08-02T01:15:25;8.00;;;3.50;;
73599;SDS011;61877;48.246;9.220;2022-08-02T01:17:53;7.47;;;3.20;;
73599;SDS011;61877;48.246;9.220;2022-08-02T01:20:34;7.50;;;3.22;;
73599;SDS011;61877;48.246;9.220;2022-08-02T01:23:24;8.75;;;3.30;;
73599;SDS011;61877;48.246;9.220;2022-08-02T01:26:07;8.83;;;3.30;;
73599;SDS011;61877;48.246;9.220;2022-08-02T01:28:45;7.85;;;3.08;;
73599;SDS011;61877;48.246;9.220;2022-08-02T01:31:17;8.95;;;3.15;;
73599;SDS011;61877;48.246;9.220;2022-08-02T01:33:50;6.82;;;3.10;;
73599;SDS011;61877;48.246;9.220;2022-08-02T01:36:20;6.82;;;2.92;;
73599;SDS011;61877;48.246;9.220;2022-08-02T01:38:49;7.20;;;2.80;;
73599;SDS011;61877;48.246;9.220;2022-08-02T01:41:18;7.50;;;3.10;;
73599;SDS011;61877;48.246;9.220;2022-08-02T01:43:50;7.57;;;3.13;;
73599;SDS011;61877;48.246;9.220;2022-08-02T01:46:19;7.35;;;2.90;;
73599;SDS011;61877;48.246;9.220;2022-08-02T01:48:46;7.38;;;2.92;;
73599;SDS011;61877;48.246;9.220;2022-08-02T01:51:15;10.77;;;3.00;;
73599;SDS011;61877;48.246;9.220;2022-08-02T01:53:42;6.72;;;3.08;;
73599;SDS011;61877;48.246;9.220;2022-08-02T01:56:09;14.00;;;3.20;;
73599;SDS011;61877;48.246;9.220;2022-08-02T01:58:37;11.77;;;3.20;;
73599;SDS011;61877;48.246;9.220;2022-08-02T02:01:07;7.25;;;2.95;;
73599;SDS011;61877;48.246;9.220;2022-08-02T02:03:35;6.80;;;2.90;;
73599;SDS011;61877;48.246;9.220;2022-08-02T02:06:03;6.88;;;2.70;;
73599;SDS011;61877;48.246;9.220;2022-08-02T02:08:32;7.63;;;3.00;;
73599;SDS011;61877;48.246;9.220;2022-08-02T02:11:02;8.93;;;2.95;;
73599;SDS011;61877;48.246;9.220;2022-08-02T02:13:28;7.22;;;3.00;;
73599;SDS011;61877;48.246;9.220;2022-08-02T02:15:55;8.67;;;3.07;;
73599;SDS011;61877;48.246;9.220;2022-08-02T02:18:25;7.10;;;3.15;;
73599;SDS011;61877;48.246;9.220;2022-08-02T02:20:53;9.80;;;3.20;;
73599;SDS011;61877;48.246;9.220;2022-08-02T02:23:19;12.07;;;3.40;;
73599;SDS011;61877;48.246;9.220;2022-08-02T02:25:44;8.50;;;3.40;;
73599;SDS011;61877;48.246;9.220;2022-08-02T02:28:11;18.23;;;3.70;;
73599;SDS011;61877;48.246;9.220;2022-08-02T02:30:41;23.77;;;3.80;;
73599;SDS011;61877;48.246;9.220;2022-08-02T02:33:13;24.53;;;3.63;;
73599;SDS011;61877;48.246;9.220;2022-08-02T02:35:43;8.35;;;3.08;;
73599;SDS011;61877;48.246;9.220;2022-08-02T02:38:15;22.42;;;3.58;;
73599;SDS011;61877;48.246;9.220;2022-08-02T02:40:42;13.15;;;3.25;;
73599;SDS011;61877;48.246;9.220;2022-08-02T02:43:10;13.35;;;3.00;;
73599;SDS011;61877;48.246;9.220;2022-08-02T02:45:37;15.27;;;3.30;;
73599;SDS011;61877;48.246;9.220;2022-08-02T02:48:04;8.20;;;2.92;;
73599;SDS011;61877;48.246;9.220;2022-08-02T02:50:31;9.05;;;3.22;;
73599;SDS011;61877;48.246;9.220;2022-08-02T02:52:58;7.95;;;2.92;;
73599;SDS011;61877;48.246;9.220;2022-08-02T02:55:25;9.38;;;3.40;;
73599;SDS011;61877;48.246;9.220;2022-08-02T02:57:52;7.20;;;3.00;;
73599;SDS011;61877;48.246;9.220;2022-08-02T03:00:18;6.80;;;3.10;;
73599;SDS011;61877;48.246;9.220;2022-08-02T03:02:43;8.45;;;3.10;;
73599;SDS011;61877;48.246;9.220;2022-08-02T03:05:10;7.73;;;3.10;;
73599;SDS011;61877;48.246;9.220;2022-08-02T03:07:37;15.77;;;3.92;;
73599;SDS011;61877;48.246;9.220;2022-08-02T03:10:04;9.15;;;3.13;;
73599;SDS011;61877;48.246;9.220;2022-08-02T03:12:31;8.00;;;3.23;;
73599;SDS011;61877;48.246;9.220;2022-08-02T03:14:59;8.18;;;2.90;;
73599;SDS011;61877;48.246;9.220;2022-08-02T03:17:35;8.95;;;3.45;;
73599;SDS011;61877;48.246;9.220;2022-08-02T03:20:01;12.18;;;3.38;;
73599;SDS011;61877;48.246;9.220;2022-08-02T03:22:30;15.73;;;3.33;;
73599;SDS011;61877;48.246;9.220;2022-08-02T03:24:55;16.20;;;3.00;;
73599;SDS011;61877;48.246;9.220;2022-08-02T03:27:22;12.27;;;3.03;;
73599;SDS011;61877;48.246;9.220;2022-08-02T03:29:47;14.00;;;3.10;;
73599;SDS011;61877;48.246;9.220;2022-08-02T03:32:13;30.83;;;4.00;;
73599;SDS011;61877;48.246;9.220;2022-08-02T03:34:38;20.70;;;3.20;;
73599;SDS011;61877;48.246;9.220;2022-08-02T03:37:04;11.03;;;2.90;;
73599;SDS011;61877;48.246;9.220;2022-08-02T03:39:29;16.37;;;3.17;;
73599;SDS011;61877;48.246;9.220;2022-08-02T03:41:56;25.10;;;3.50;;
73599;SDS011;61877;48.246;9.220;2022-08-02T03:44:24;21.38;;;3.55;;
73599;SDS011;61877;48.246;9.220;2022-08-02T03:46:50;16.52;;;3.35;;
73599;SDS011;61877;48.246;9.220;2022-08-02T03:49:17;8.37;;;2.97;;
73599;SDS011;61877;48.246;9.220;2022-08-02T03:51:43;24.25;;;3.40;;
73599;SDS011;61877;48.246;9.220;2022-08-02T03:54:09;13.30;;;3.00;;
73599;SDS011;61877;48.246;9.220;2022-08-02T03:56:35;25.57;;;3.23;;
73599;SDS011;61877;48.246;9.220;2022-08-02T03:59:04;12.37;;;2.97;;
73599;SDS011;61877;48.246;9.220;2022-08-02T04:01:35;8.05;;;2.75;;
73599;SDS011;61877;48.246;9.220;2022-08-02T04:04:00;8.25;;;2.47;;
73599;SDS011;61877;48.246;9.220;2022-08-02T04:06:26;37.20;;;3.50;;
73599;SDS011;61877;48.246;9.220;2022-08-02T04:08:51;12.33;;;2.90;;
73599;SDS011;61877;48.246;9.220;2022-08-02T04:11:17;9.00;;;2.90;;
73599;SDS011;61877;48.246;9.220;2022-08-02T04:13:42;25.43;;;2.93;;
73599;SDS011;61877;48.246;9.220;2022-08-02T04:16:09;47.47;;;3.75;;
73599;SDS011;61877;48.246;9.220;2022-08-02T04:18:42;26.83;;;3.00;;
73599;SDS011;61877;48.246;9.220;2022-08-02T04:21:11;12.13;;;2.58;;
73599;SDS011;61877;48.246;9.220;2022-08-02T04:23:38;60.17;;;4.07;;
73599;SDS011;61877;48.246;9.220;2022-08-02T04:26:07;34.65;;;2.95;;
73599;SDS011;61877;48.246;9.220;2022-08-02T04:28:34;11.60;;;2.33;;
73599;SDS011;61877;48.246;9.220;2022-08-02T04:31:00;16.90;;;2.57;;
73599;SDS011;61877;48.246;9.220;2022-08-02T04:33:27;15.15;;;2.28;;
73599;SDS011;61877;48.246;9.220;2022-08-02T04:35:54;10.52;;;2.40;;
73599;SDS011;61877;48.246;9.220;2022-08-02T04:38:20;6.65;;;2.28;;
73599;SDS011;61877;48.246;9.220;2022-08-02T04:40:49;32.13;;;2.77;;
73599;SDS011;61877;48.246;9.220;2022-08-02T04:43:15;13.70;;;3.22;;
73599;SDS011;61877;48.246;9.220;2022-08-02T04:45:41;7.10;;;3.10;;
73599;SDS011;61877;48.246;9.220;2022-08-02T04:48:07;6.90;;;2.78;;
73599;SDS011;61877;48.246;9.220;2022-08-02T04:50:35;6.00;;;2.00;;
73599;SDS011;61877;48.246;9.220;2022-08-02T04:53:02;8.27;;;2.40;;
73599;SDS011;61877;48.246;9.220;2022-08-02T04:55:27;6.90;;;2.42;;
73599;SDS011;61877;48.246;9.220;2022-08-02T04:57:53;7.07;;;2.47;;
73599;SDS011;61877;48.246;9.220;2022-08-02T05:00:18;7.43;;;2.33;;
73599;SDS011;61877;48.246;9.220;2022-08-02T05:02:44;7.40;;;2.38;;
73599;SDS011;61877;48.246;9.220;2022-08-02T05:05:09;6.47;;;2.57;;
73599;SDS011;61877;48.246;9.220;2022-08-02T05:07:35;7.57;;;2.25;;
73599;SDS011;61877;48.246;9.220;2022-08-02T05:10:02;7.33;;;2.73;;
73599;SDS011;61877;48.246;9.220;2022-08-02T05:12:28;6.20;;;2.55;;
73599;SDS011;61877;48.246;9.220;2022-08-02T05:14:53;6.17;;;2.13;;
73599;SDS011;61877;48.246;9.220;2022-08-02T05:17:19;6.30;;;2.47;;
73599;SDS011;61877;48.246;9.220;2022-08-02T05:19:46;6.50;;;2.70;;
73599;SDS011;61877;48.246;9.220;2022-08-02T05:22:12;6.00;;;2.40;;
73599;SDS011;61877;48.246;9.220;2022-08-02T05:24:37;6.00;;;2.43;;
73599;SDS011;61877;48.246;9.220;2022-08-02T05:27:04;7.13;;;2.70;;
73599;SDS011;61877;48.246;9.220;2022-08-02T05:29:30;6.30;;;2.35;;
73599;SDS011;61877;48.246;9.220;2022-08-02T05:31:55;5.97;;;2.40;;
73599;SDS011;61877;48.246;9.220;2022-08-02T05:34:20;5.87;;;2.40;;
73599;SDS011;61877;48.246;9.220;2022-08-02T05:36:46;5.80;;;2.33;;
73599;SDS011;61877;48.246;9.220;2022-08-02T05:39:11;6.72;;;2.35;;
73599;SDS011;61877;48.246;9.220;2022-08-02T05:41:37;6.20;;;2.33;;
73599;SDS011;61877;48.246;9.220;2022-08-02T05:44:03;5.87;;;2.10;;
73599;SDS011;61877;48.246;9.220;2022-08-02T05:46:29;6.10;;;2.25;;
73599;SDS011;61877;48.246;9.220;2022-08-02T05:48:54;6.80;;;2.43;;
73599;SDS011;61877;48.246;9.220;2022-08-02T05:51:21;6.40;;;2.53;;
73599;SDS011;61877;48.246;9.220;2022-08-02T05:53:54;6.60;;;2.70;;
73599;SDS011;61877;48.246;9.220;2022-08-02T05:56:28;6.38;;;2.45;;
73599;SDS011;61877;48.246;9.220;2022-08-02T05:58:59;6.15;;;2.20;;
73599;SDS011;61877;48.246;9.220;2022-08-02T06:01:31;6.05;;;2.42;;
73599;SDS011;61877;48.246;9.220;2022-08-02T06:03:58;5.70;;;2.20;;
73599;SDS011;61877;48.246;9.220;2022-08-02T06:06:25;6.68;;;2.28;;
73599;SDS011;61877;48.246;9.220;2022-08-02T06:08:57;5.57;;;2.10;;
73599;SDS011;61877;48.246;9.220;2022-08-02T06:11:27;5.90;;;2.13;;
73599;SDS011;61877;48.246;9.220;2022-08-02T06:13:58;5.95;;;2.10;;
73599;SDS011;61877;48.246;9.220;2022-08-02T06:16:25;5.60;;;2.07;;
73599;SDS011;61877;48.246;9.220;2022-08-02T06:18:52;6.25;;;2.25;;
73599;SDS011;61877;48.246;9.220;2022-08-02T06:21:18;6.18;;;2.10;;
73599;SDS011;61877;48.246;9.220;2022-08-02T06:23:45;6.27;;;1.97;;
73599;SDS011;61877;48.246;9.220;2022-08-02T06:26:12;5.95;;;2.00;;
73599;SDS011;61877;48.246;9.220;2022-08-02T06:28:38;5.43;;;2.05;;
73599;SDS011;61877;48.246;9.220;2022-08-02T06:31:05;5.47;;;1.90;;
73599;SDS011;61877;48.246;9.220;2022-08-02T06:33:30;7.63;;;2.10;;
73599;SDS011;61877;48.246;9.220;2022-08-02T06:36:00;5.85;;;2.38;;
73599;SDS011;61877;48.246;9.220;2022-08-02T06:38:31;5.63;;;2.20;;
73599;SDS011;61877;48.246;9.220;2022-08-02T06:41:00;6.05;;;2.10;;
73599;SDS011;61877;48.246;9.220;2022-08-02T06:43:30;5.93;;;2.13;;
73599;SDS011;61877;48.246;9.220;2022-08-02T06:46:02;5.65;;;2.10;;
73599;SDS011;61877;48.246;9.220;2022-08-02T06:48:28;6.90;;;2.13;;
73599;SDS011;61877;48.246;9.220;2022-08-02T06:50:54;6.85;;;2.03;;
73599;SDS011;61877;48.246;9.220;2022-08-02T06:53:21;7.45;;;2.10;;
73599;SDS011;61877;48.246;9.220;2022-08-02T06:55:46;5.73;;;2.00;;
73599;SDS011;61877;48.246;9.220;2022-08-02T06:58:12;6.35;;;2.10;;
73599;SDS011;61877;48.246;9.220;2022-08-02T07:00:38;7.17;;;2.13;;
73599;SDS011;61877;48.246;9.220;2022-08-02T07:03:04;6.47;;;2.25;;
73599;SDS011;61877;48.246;9.220;2022-08-02T07:05:30;5.95;;;1.90;;
73599;SDS011;61877;48.246;9.220;2022-08-02T07:07:55;6.50;;;2.60;;
73599;SDS011;61877;48.246;9.220;2022-08-02T07:10:22;6.13;;;2.03;;
73599;SDS011;61877;48.246;9.220;2022-08-02T07:12:48;6.53;;;2.05;;
73599;SDS011;61877;48.246;9.220;2022-08-02T07:15:13;6.37;;;2.10;;
73599;SDS011;61877;48.246;9.220;2022-08-02T07:17:38;5.53;;;2.00;;
73599;SDS011;61877;48.246;9.220;2022-08-02T07:20:04;6.43;;;2.17;;
73599;SDS011;61877;48.246;9.220;2022-08-02T07:22:31;5.28;;;1.88;;
73599;SDS011;61877;48.246;9.220;2022-08-02T07:24:57;6.40;;;2.37;;
73599;SDS011;61877;48.246;9.220;2022-08-02T07:27:25;5.95;;;2.20;;
73599;SDS011;61877;48.246;9.220;2022-08-02T07:29:50;5.70;;;2.10;;
73599;SDS011;61877;48.246;9.220;2022-08-02T07:32:17;6.70;;;2.10;;
73599;SDS011;61877;48.246;9.220;2022-08-02T07:34:43;7.18;;;2.33;;
73599;SDS011;61877;48.246;9.220;2022-08-02T07:37:09;6.67;;;2.13;;
73599;SDS011;61877;48.246;9.220;2022-08-02T07:39:34;7.60;;;2.60;;
73599;SDS011;61877;48.246;9.220;2022-08-02T07:42:00;6.63;;;2.30;;
73599;SDS011;61877;48.246;9.220;2022-08-02T07:44:26;7.43;;;2.23;;
73599;SDS011;61877;48.246;9.220;2022-08-02T07:46:52;6.05;;;2.30;;
73599;SDS011;61877;48.246;9.220;2022-08-02T07:49:17;7.40;;;2.30;;
73599;SDS011;61877;48.246;9.220;2022-08-02T07:51:43;6.43;;;2.70;;
73599;SDS011;61877;48.246;9.220;2022-08-02T07:54:09;7.00;;;2.38;;
73599;SDS011;61877;48.246;9.220;2022-08-02T07:56:34;6.83;;;2.23;;
73599;SDS011;61877;48.246;9.220;2022-08-02T07:59:00;7.00;;;2.93;;
73599;SDS011;61877;48.246;9.220;2022-08-02T08:01:26;9.17;;;2.37;;
73599;SDS011;61877;48.246;9.220;2022-08-02T08:03:52;6.57;;;2.30;;
73599;SDS011;61877;48.246;9.220;2022-08-02T08:06:17;5.77;;;2.13;;
73599;SDS011;61877;48.246;9.220;2022-08-02T08:08:43;6.57;;;2.20;;
73599;SDS011;61877;48.246;9.220;2022-08-02T08:11:08;6.23;;;2.10;;
73599;SDS011;61877;48.246;9.220;2022-08-02T08:13:33;5.57;;;2.30;;
73599;SDS011;61877;48.246;9.220;2022-08-02T08:15:59;6.27;;;2.10;;
73599;SDS011;61877;48.246;9.220;2022-08-02T08:18:26;6.93;;;2.40;;
73599;SDS011;61877;48.246;9.220;2022-08-02T08:20:54;5.50;;;2.30;;
73599;SDS011;61877;48.246;9.220;2022-08-02T08:23:19;5.60;;;2.23;;
73599;SDS011;61877;48.246;9.220;2022-08-02T08:25:45;8.13;;;2.50;;
73599;SDS011;61877;48.246;9.220;2022-08-02T08:28:10;6.55;;;2.40;;
73599;SDS011;61877;48.246;9.220;2022-08-02T08:30:36;6.13;;;2.20;;
73599;SDS011;61877;48.246;9.220;2022-08-02T08:33:01;6.37;;;2.20;;
73599;SDS011;61877;48.246;9.220;2022-08-02T08:35:28;5.77;;;2.30;;
73599;SDS011;61877;48.246;9.220;2022-08-02T08:37:53;6.07;;;2.17;;
73599;SDS011;61877;48.246;9.220;2022-08-02T08:40:19;6.30;;;2.50;;
73599;SDS011;61877;48.246;9.220;2022-08-02T08:42:44;6.15;;;2.40;;
73599;SDS011;61877;48.246;9.220;2022-08-02T08:45:10;6.07;;;2.30;;
73599;SDS011;61877;48.246;9.220;2022-08-02T08:47:35;6.40;;;2.40;;
73599;SDS011;61877;48.246;9.220;2022-08-02T08:50:03;6.10;;;2.80;;
73599;SDS011;61877;48.246;9.220;2022-08-02T08:52:32;6.00;;;2.67;;
73599;SDS011;61877;48.246;9.220;2022-08-02T08:55:04;5.78;;;2.42;;
73599;SDS011;61877;48.246;9.220;2022-08-02T08:57:33;6.00;;;2.20;;
73599;SDS011;61877;48.246;9.220;2022-08-02T08:59:59;5.93;;;2.47;;
73599;SDS011;61877;48.246;9.220;2022-08-02T09:02:24;7.55;;;2.60;;
73599;SDS011;61877;48.246;9.220;2022-08-02T09:04:50;6.13;;;2.47;;
73599;SDS011;61877;48.246;9.220;2022-08-02T09:07:15;5.70;;;2.40;;
73599;SDS011;61877;48.246;9.220;2022-08-02T09:09:42;5.57;;;2.33;;
73599;SDS011;61877;48.246;9.220;2022-08-02T09:12:14;8.18;;;2.35;;
73599;SDS011;61877;48.246;9.220;2022-08-02T09:14:39;5.77;;;2.57;;
73599;SDS011;61877;48.246;9.220;2022-08-02T09:17:05;6.72;;;2.80;;
73599;SDS011;61877;48.246;9.220;2022-08-02T09:19:32;5.90;;;2.40;;
73599;SDS011;61877;48.246;9.220;2022-08-02T09:21:59;6.07;;;2.50;;
73599;SDS011;61877;48.246;9.220;2022-08-02T09:24:25;6.03;;;2.37;;
73599;SDS011;61877;48.246;9.220;2022-08-02T09:26:52;7.75;;;2.30;;
73599;SDS011;61877;48.246;9.220;2022-08-02T09:29:20;7.65;;;2.50;;
73599;SDS011;61877;48.246;9.220;2022-08-02T09:31:47;6.87;;;2.50;;
73599;SDS011;61877;48.246;9.220;2022-08-02T09:34:12;5.70;;;2.30;;
73599;SDS011;61877;48.246;9.220;2022-08-02T09:36:38;6.00;;;2.60;;
73599;SDS011;61877;48.246;9.220;2022-08-02T09:39:06;6.10;;;2.35;;
73599;SDS011;61877;48.246;9.220;2022-08-02T09:41:33;6.45;;;2.20;;
73599;SDS011;61877;48.246;9.220;2022-08-02T09:44:03;6.97;;;2.85;;
73599;SDS011;61877;48.246;9.220;2022-08-02T09:46:29;5.40;;;2.20;;
73599;SDS011;61877;48.246;9.220;2022-08-02T09:48:57;5.93;;;2.75;;
73599;SDS011;61877;48.246;9.220;2022-08-02T09:51:23;8.00;;;2.67;;
73599;SDS011;61877;48.246;9.220;2022-08-02T09:53:50;5.75;;;2.40;;
73599;SDS011;61877;48.246;9.220;2022-08-02T09:56:17;7.32;;;2.60;;
73599;SDS011;61877;48.246;9.220;2022-08-02T09:58:44;6.20;;;2.30;;
73599;SDS011;61877;48.246;9.220;2022-08-02T10:01:11;5.53;;;2.40;;
73599;SDS011;61877;48.246;9.220;2022-08-02T10:03:53;6.65;;;2.40;;
73599;SDS011;61877;48.246;9.220;2022-08-02T10:06:20;6.43;;;2.40;;
73599;SDS011;61877;48.246;9.220;2022-08-02T10:08:46;6.50;;;2.85;;
73599;SDS011;61877;48.246;9.220;2022-08-02T10:11:12;6.17;;;2.60;;
73599;SDS011;61877;48.246;9.220;2022-08-02T10:13:38;6.63;;;3.00;;
73599;SDS011;61877;48.246;9.220;2022-08-02T10:16:03;6.40;;;2.53;;
73599;SDS011;61877;48.246;9.220;2022-08-02T10:18:31;5.90;;;2.53;;
73599;SDS011;61877;48.246;9.220;2022-08-02T10:20:57;5.85;;;2.72;;
73599;SDS011;61877;48.246;9.220;2022-08-02T10:23:25;5.80;;;2.72;;
73599;SDS011;61877;48.246;9.220;2022-08-02T10:25:53;6.40;;;2.80;;
73599;SDS011;61877;48.246;9.220;2022-08-02T10:28:22;8.07;;;2.50;;
73599;SDS011;61877;48.246;9.220;2022-08-02T10:30:51;6.78;;;2.70;;
73599;SDS011;61877;48.246;9.220;2022-08-02T10:33:20;7.03;;;2.53;;
73599;SDS011;61877;48.246;9.220;2022-08-02T10:35:49;6.57;;;2.70;;
73599;SDS011;61877;48.246;9.220;2022-08-02T10:38:16;5.73;;;2.57;;
73599;SDS011;61877;48.246;9.220;2022-08-02T10:40:43;6.18;;;2.40;;
73599;SDS011;61877;48.246;9.220;2022-08-02T10:43:10;6.70;;;2.50;;
73599;SDS011;61877;48.246;9.220;2022-08-02T10:45:36;6.15;;;2.50;;
73599;SDS011;61877;48.246;9.220;2022-08-02T10:48:02;6.07;;;2.57;;
73599;SDS011;61877;48.246;9.220;2022-08-02T10:53:26;7.20;;;2.47;;
73599;SDS011;61877;48.246;9.220;2022-08-02T10:55:54;6.47;;;2.37;;
73599;SDS011;61877;48.246;9.220;2022-08-02T10:58:21;6.63;;;2.55;;
73599;SDS011;61877;48.246;9.220;2022-08-02T11:00:47;6.50;;;2.50;;
73599;SDS011;61877;48.246;9.220;2022-08-02T11:03:32;5.97;;;2.45;;
73599;SDS011;61877;48.246;9.220;2022-08-02T11:06:01;5.75;;;2.50;;
73599;SDS011;61877;48.246;9.220;2022-08-02T11:08:27;6.03;;;2.30;;
73599;SDS011;61877;48.246;9.220;2022-08-02T11:10:56;5.55;;;2.30;;
73599;SDS011;61877;48.246;9.220;2022-08-02T11:13:22;5.60;;;2.30;;
73599;SDS011;61877;48.246;9.220;2022-08-02T11:15:49;6.47;;;2.60;;
73599;SDS011;61877;48.246;9.220;2022-08-02T11:18:19;7.07;;;2.65;;
73599;SDS011;61877;48.246;9.220;2022-08-02T11:20:46;5.57;;;2.50;;
73599;SDS011;61877;48.246;9.220;2022-08-02T11:26:01;8.23;;;2.67;;
73599;SDS011;61877;48.246;9.220;2022-08-02T11:28:27;5.80;;;2.50;;
73599;SDS011;61877;48.246;9.220;2022-08-02T11:30:57;5.90;;;2.53;;
73599;SDS011;61877;48.246;9.220;2022-08-02T11:33:28;6.00;;;2.40;;
73599;SDS011;61877;48.246;9.220;2022-08-02T11:35:58;5.50;;;2.10;;
73599;SDS011;61877;48.246;9.220;2022-08-02T11:38:25;5.93;;;2.42;;
73599;SDS011;61877;48.246;9.220;2022-08-02T11:40:52;6.77;;;2.63;;
73599;SDS011;61877;48.246;9.220;2022-08-02T11:43:18;5.70;;;2.50;;
73599;SDS011;61877;48.246;9.220;2022-08-02T11:45:45;6.78;;;2.47;;
73599;SDS011;61877;48.246;9.220;2022-08-02T11:48:11;5.82;;;2.65;;
73599;SDS011;61877;48.246;9.220;2022-08-02T11:50:37;5.43;;;2.10;;
73599;SDS011;61877;48.246;9.220;2022-08-02T11:53:11;6.70;;;2.20;;
73599;SDS011;61877;48.246;9.220;2022-08-02T11:55:37;6.28;;;2.50;;
73599;SDS011;61877;48.246;9.220;2022-08-02T11:58:04;5.50;;;2.20;;
73599;SDS011;61877;48.246;9.220;2022-08-02T12:00:29;6.15;;;2.42;;
73599;SDS011;61877;48.246;9.220;2022-08-02T12:02:55;6.50;;;2.53;;
73599;SDS011;61877;48.246;9.220;2022-08-02T12:05:21;5.53;;;2.33;;
73599;SDS011;61877;48.246;9.220;2022-08-02T12:07:47;5.65;;;2.38;;
73599;SDS011;61877;48.246;9.220;2022-08-02T12:10:13;5.90;;;2.30;;
73599;SDS011;61877;48.246;9.220;2022-08-02T12:12:47;6.80;;;2.45;;
73599;SDS011;61877;48.246;9.220;2022-08-02T12:15:15;6.43;;;2.50;;
73599;SDS011;61877;48.246;9.220;2022-08-02T12:17:52;6.05;;;2.10;;
73599;SDS011;61877;48.246;9.220;2022-08-02T12:20:17;6.30;;;2.40;;
73599;SDS011;61877;48.246;9.220;2022-08-02T12:22:43;6.30;;;2.40;;
73599;SDS011;61877;48.246;9.220;2022-08-02T12:25:15;5.50;;;2.20;;
73599;SDS011;61877;48.246;9.220;2022-08-02T12:27:41;5.78;;;2.47;;
73599;SDS011;61877;48.246;9.220;2022-08-02T12:30:08;5.57;;;2.40;;
73599;SDS011;61877;48.246;9.220;2022-08-02T12:32:36;5.82;;;2.42;;
73599;SDS011;61877;48.246;9.220;2022-08-02T12:35:03;6.28;;;2.35;;
73599;SDS011;61877;48.246;9.220;2022-08-02T12:37:32;6.23;;;2.30;;
73599;SDS011;61877;48.246;9.220;2022-08-02T12:39:58;5.63;;;2.22;;
73599;SDS011;61877;48.246;9.220;2022-08-02T12:42:44;5.80;;;2.28;;
73599;SDS011;61877;48.246;9.220;2022-08-02T12:45:10;5.50;;;2.38;;
73599;SDS011;61877;48.246;9.220;2022-08-02T12:47:44;6.17;;;2.60;;
73599;SDS011;61877;48.246;9.220;2022-08-02T12:50:11;5.95;;;2.58;;
73599;SDS011;61877;48.246;9.220;2022-08-02T12:52:38;6.15;;;2.70;;
73599;SDS011;61877;48.246;9.220;2022-08-02T12:55:13;6.13;;;2.40;;
73599;SDS011;61877;48.246;9.220;2022-08-02T12:57:49;7.18;;;2.50;;
73599;SDS011;61877;48.246;9.220;2022-08-02T13:00:21;7.15;;;2.63;;
73599;SDS011;61877;48.246;9.220;2022-08-02T13:02:48;5.43;;;2.40;;
73599;SDS011;61877;48.246;9.220;2022-08-02T13:05:14;5.70;;;2.70;;
73599;SDS011;61877;48.246;9.220;2022-08-02T13:07:39;6.55;;;2.30;;
73599;SDS011;61877;48.246;9.220;2022-08-02T13:10:05;5.70;;;2.50;;
73599;SDS011;61877;48.246;9.220;2022-08-02T13:12:31;8.10;;;2.42;;
73599;SDS011;61877;48.246;9.220;2022-08-02T13:14:56;6.60;;;2.50;;
73599;SDS011;61877;48.246;9.220;2022-08-02T13:17:22;6.83;;;2.70;;
73599;SDS011;61877;48.246;9.220;2022-08-02T13:19:48;5.40;;;2.40;;
73599;SDS011;61877;48.246;9.220;2022-08-02T13:22:14;5.60;;;2.60;;
73599;SDS011;61877;48.246;9.220;2022-08-02T13:24:39;5.82;;;2.90;;
73599;SDS011;61877;48.246;9.220;2022-08-02T13:27:05;6.10;;;2.60;;
73599;SDS011;61877;48.246;9.220;2022-08-02T13:29:30;5.70;;;2.60;;
73599;SDS011;61877;48.246;9.220;2022-08-02T13:31:56;6.00;;;2.50;;
73599;SDS011;61877;48.246;9.220;2022-08-02T13:34:21;5.50;;;2.40;;
73599;SDS011;61877;48.246;9.220;2022-08-02T13:36:48;5.80;;;2.57;;
73599;SDS011;61877;48.246;9.220;2022-08-02T13:39:13;5.68;;;2.50;;
73599;SDS011;61877;48.246;9.220;2022-08-02T13:41:39;6.10;;;2.60;;
73599;SDS011;61877;48.246;9.220;2022-08-02T13:44:04;6.50;;;2.80;;
73599;SDS011;61877;48.246;9.220;2022-08-02T13:46:30;6.27;;;2.70;;
73599;SDS011;61877;48.246;9.220;2022-08-02T13:48:55;6.25;;;2.60;;
73599;SDS011;61877;48.246;9.220;2022-08-02T13:51:21;6.27;;;2.60;;
73599;SDS011;61877;48.246;9.220;2022-08-02T13:53:47;5.63;;;2.47;;
73599;SDS011;61877;48.246;9.220;2022-08-02T13:56:13;8.48;;;2.55;;
73599;SDS011;61877;48.246;9.220;2022-08-02T13:58:38;6.23;;;2.67;;
73599;SDS011;61877;48.246;9.220;2022-08-02T14:01:04;5.72;;;2.53;;
73599;SDS011;61877;48.246;9.220;2022-08-02T14:03:29;5.50;;;2.43;;
73599;SDS011;61877;48.246;9.220;2022-08-02T14:05:54;5.80;;;2.80;;
73599;SDS011;61877;48.246;9.220;2022-08-02T14:08:20;5.70;;;2.70;;
73599;SDS011;61877;48.246;9.220;2022-08-02T14:10:47;6.90;;;2.57;;
73599;SDS011;61877;48.246;9.220;2022-08-02T14:13:13;5.90;;;2.47;;
73599;SDS011;61877;48.246;9.220;2022-08-02T14:15:39;5.50;;;2.70;;
73599;SDS011;61877;48.246;9.220;2022-08-02T14:18:04;5.78;;;2.50;;
73599;SDS011;61877;48.246;9.220;2022-08-02T14:20:30;5.40;;;2.47;;
73599;SDS011;61877;48.246;9.220;2022-08-02T14:22:55;8.80;;;2.50;;
73599;SDS011;61877;48.246;9.220;2022-08-02T14:25:21;6.87;;;3.20;;
73599;SDS011;61877;48.246;9.220;2022-08-02T14:27:47;5.68;;;2.75;;
73599;SDS011;61877;48.246;9.220;2022-08-02T14:30:13;5.80;;;2.80;;
73599;SDS011;61877;48.246;9.220;2022-08-02T14:32:38;6.17;;;2.90;;
73599;SDS011;61877;48.246;9.220;2022-08-02T14:35:04;6.17;;;3.10;;
73599;SDS011;61877;48.246;9.220;2022-08-02T14:37:30;5.80;;;3.00;;
73599;SDS011;61877;48.246;9.220;2022-08-02T14:39:56;5.90;;;2.90;;
73599;SDS011;61877;48.246;9.220;2022-08-02T14:42:21;5.60;;;2.60;;
73599;SDS011;61877;48.246;9.220;2022-08-02T14:44:48;6.20;;;3.15;;
73599;SDS011;61877;48.246;9.220;2022-08-02T14:47:13;5.87;;;2.80;;
73599;SDS011;61877;48.246;9.220;2022-08-02T14:49:39;6.82;;;2.90;;